Time;durP1;ratioP1;P1;durP2;ratioP2;P2;SDS_P1;SDS_P2;PMS_P1;PMS_P2;Temp;Humidity;BMP_temperature;BMP_pressure;BME280_temperature;BME280_humidity;BME280_pressure;Samples;Min_cycle;Max_cycle;Signal;HPM_P1;HPM_P2
2023/01/25 00:00:20;;;;;;;10.23;6.15;;;;;;;1.62;100.00;102909.69;5186163;28;20103;-76
2023/01/25 00:02:50;;;;;;;10.85;6.05;;;;;;;1.64;100.00;102908.06;5186302;28;20029;-75
2023/01/25 00:05:21;;;;;;;9.90;6.13;;;;;;;1.65;100.00;102904.66;5189631;28;20039;-76
2023/01/25 00:07:51;;;;;;;10.55;5.90;;;;;;;1.71;100.00;102891.13;5187755;28;20030;-76
2023/01/25 00:10:21;;;;;;;10.70;6.32;;;;;;;1.38;100.00;102895.88;5191223;28;20021;-76
2023/01/25 00:12:52;;;;;;;11.15;6.43;;;;;;;1.44;100.00;102890.06;5184285;28;20033;-76
2023/01/25 00:15:23;;;;;;;13.90;7.13;;;;;;;1.51;100.00;102880.06;5183238;28;20039;-76
2023/01/25 00:17:53;;;;;;;10.70;6.70;;;;;;;1.55;100.00;102876.78;5190393;28;20025;-76
2023/01/25 00:20:24;;;;;;;10.18;6.10;;;;;;;1.53;100.00;102878.41;5180986;28;20029;-75
2023/01/25 00:22:54;;;;;;;12.13;6.93;;;;;;;1.54;100.00;102884.47;5186085;28;20026;-76
2023/01/25 00:25:24;;;;;;;12.70;7.45;;;;;;;1.47;100.00;102875.63;5190255;28;20096;-75
2023/01/25 00:27:55;;;;;;;10.75;6.43;;;;;;;1.37;100.00;102878.66;5211242;23;20049;-71
2023/01/25 00:41:26;;;;;;;14.48;7.75;;;;;;;1.37;100.00;102868.34;5190584;28;20033;-71
2023/01/25 00:43:57;;;;;;;15.15;8.43;;;;;;;1.47;100.00;102865.31;5183703;28;20029;-70
2023/01/25 00:46:27;;;;;;;15.90;8.45;;;;;;;1.51;100.00;102853.41;5177935;28;20025;-71
2023/01/25 00:48:57;;;;;;;14.18;8.43;;;;;;;1.42;100.00;102864.25;5169437;28;20038;-69
2023/01/25 00:51:28;;;;;;;17.58;9.38;;;;;;;1.40;100.00;102865.88;5181832;28;20185;-71
2023/01/25 00:53:58;;;;;;;15.35;8.75;;;;;;;1.61;100.00;102853.78;5184936;28;20128;-70
2023/01/25 00:56:28;;;;;;;15.55;9.07;;;;;;;1.57;100.00;102848.50;5189872;28;20029;-70
2023/01/25 00:58:59;;;;;;;15.43;8.50;;;;;;;1.50;100.00;102852.53;5183888;28;20037;-70
2023/01/25 01:01:29;;;;;;;16.20;8.65;;;;;;;1.37;100.00;102842.59;5183483;28;20033;-71
2023/01/25 01:03:59;;;;;;;17.52;8.95;;;;;;;1.50;100.00;102842.25;5182326;28;20117;-71
2023/01/25 01:09:19;;;;;;;17.90;10.00;;;;;;;1.33;100.00;102843.31;5189688;28;20071;-70
2023/01/25 01:11:50;;;;;;;17.73;9.73;;;;;;;1.37;100.00;102839.16;5169767;28;20034;-70
2023/01/25 01:14:21;;;;;;;19.15;9.88;;;;;;;1.50;100.00;102836.19;5180510;28;20038;-71
2023/01/25 01:16:52;;;;;;;20.27;10.75;;;;;;;1.64;100.00;102835.00;5186577;28;20038;-71
2023/01/25 01:19:22;;;;;;;18.80;9.93;;;;;;;1.54;100.00;102832.94;5180369;28;20315;-71
2023/01/25 01:21:52;;;;;;;19.17;10.73;;;;;;;1.55;100.00;102832.97;5191021;28;20460;-71
2023/01/25 01:24:23;;;;;;;18.25;10.50;;;;;;;1.60;100.00;102830.56;5179695;28;20032;-71
2023/01/25 01:26:53;;;;;;;19.80;11.00;;;;;;;1.61;100.00;102833.19;5179402;28;20028;-70
2023/01/25 01:29:23;;;;;;;19.85;11.35;;;;;;;1.58;100.00;102827.94;5182922;28;20080;-70
2023/01/25 01:31:55;;;;;;;21.25;12.23;;;;;;;1.59;100.00;102821.94;5187879;28;20034;-71
2023/01/25 01:34:25;;;;;;;22.65;11.95;;;;;;;1.61;100.00;102830.59;5184584;28;20026;-71
2023/01/25 01:36:55;;;;;;;21.60;11.88;;;;;;;1.56;100.00;102820.97;5187591;28;20489;-70
2023/01/25 01:39:26;;;;;;;25.48;13.30;;;;;;;1.46;100.00;102816.28;5191555;28;20041;-71
2023/01/25 01:41:56;;;;;;;26.25;14.02;;;;;;;1.47;100.00;102818.94;5179349;28;20442;-71
2023/01/25 01:44:49;;;;;;;26.40;13.85;;;;;;;1.40;100.00;102804.06;5183225;28;20088;-70
2023/01/25 01:47:44;;;;;;;25.35;13.68;;;;;;;1.50;100.00;102801.03;5180268;28;20017;-70
2023/01/25 01:50:22;;;;;;;25.73;13.55;;;;;;;1.57;100.00;102792.69;5184236;28;20487;-71
2023/01/25 01:52:52;;;;;;;24.02;13.70;;;;;;;1.46;100.00;102791.44;5180570;28;20034;-70
2023/01/25 01:55:23;;;;;;;26.02;14.18;;;;;;;1.52;100.00;102783.03;5191728;28;20033;-71
2023/01/25 01:57:58;;;;;;;28.30;14.15;;;;;;;1.49;100.00;102778.66;5181693;28;20108;-70
2023/01/25 02:00:37;;;;;;;30.65;14.77;;;;;;;1.41;100.00;102785.22;5191281;28;20029;-70
2023/01/25 02:03:11;;;;;;;28.55;15.02;;;;;;;1.39;100.00;102781.69;5191687;28;20034;-71
2023/01/25 02:06:03;;;;;;;26.38;14.60;;;;;;;1.46;100.00;102777.66;5188632;28;20021;-70
2023/01/25 02:08:35;;;;;;;27.98;14.68;;;;;;;1.52;100.00;102778.75;5185282;28;20033;-71
2023/01/25 02:11:06;;;;;;;29.50;15.13;;;;;;;1.47;100.00;102775.16;5187214;28;20052;-71
2023/01/25 02:13:37;;;;;;;32.70;15.98;;;;;;;1.48;100.00;102773.44;5181352;28;20493;-70
2023/01/25 02:16:15;;;;;;;28.95;15.00;;;;;;;1.52;100.00;102771.03;5180542;28;20034;-70
2023/01/25 02:18:45;;;;;;;29.73;14.75;;;;;;;1.40;100.00;102773.16;5187931;28;20136;-71
2023/01/25 02:21:16;;;;;;;30.25;15.43;;;;;;;1.37;100.00;102761.88;5188849;28;20109;-71
2023/01/25 02:24:06;;;;;;;29.73;14.73;;;;;;;1.51;100.00;102761.56;5181410;28;20029;-71
2023/01/25 02:26:38;;;;;;;28.27;14.88;;;;;;;1.58;100.00;102773.81;5181281;28;20491;-71
2023/01/25 02:29:09;;;;;;;25.75;14.20;;;;;;;1.46;100.00;102767.34;5189625;28;20088;-70
2023/01/25 02:31:43;;;;;;;25.48;13.43;;;;;;;1.36;100.00;102773.88;5194360;28;20454;-71
2023/01/25 02:34:14;;;;;;;30.30;14.95;;;;;;;1.31;100.00;102779.66;5182988;28;20033;-71
2023/01/25 02:36:44;;;;;;;30.45;15.65;;;;;;;1.13;100.00;102785.03;5189295;28;20026;-70
2023/01/25 02:39:17;;;;;;;33.22;16.30;;;;;;;1.07;100.00;102774.47;5182121;28;20110;-70
2023/01/25 02:41:47;;;;;;;32.42;16.17;;;;;;;1.07;100.00;102774.47;5191357;28;20503;-70
2023/01/25 02:44:26;;;;;;;33.45;16.42;;;;;;;1.20;100.00;102768.97;5186675;28;20112;-71
2023/01/25 02:46:56;;;;;;;29.98;15.55;;;;;;;1.11;100.00;102778.06;5186958;28;20040;-70
2023/01/25 02:49:26;;;;;;;29.60;15.32;;;;;;;1.05;100.00;102772.69;5184333;28;20029;-71
2023/01/25 02:51:56;;;;;;;32.55;16.08;;;;;;;0.98;100.00;102768.09;5193541;28;20033;-70
2023/01/25 02:54:27;;;;;;;29.95;15.30;;;;;;;1.19;100.00;102768.91;5189647;28;20033;-71
2023/01/25 02:56:57;;;;;;;31.27;15.63;;;;;;;1.22;100.00;102762.19;5194367;28;20510;-71
2023/01/25 02:59:28;;;;;;;34.55;17.08;;;;;;;1.25;100.00;102766.56;5189819;28;20037;-70
2023/01/25 03:01:58;;;;;;;31.42;16.10;;;;;;;1.44;100.00;102759.56;5184075;28;20029;-70
2023/01/25 03:04:28;;;;;;;30.55;16.55;;;;;;;1.50;100.00;102764.94;5186864;28;20030;-70
2023/01/25 03:11:06;;;;;;;29.40;14.53;;;;;;;1.55;100.00;102759.97;5187932;28;20112;-71
2023/01/25 03:13:36;;;;;;;27.90;15.00;;;;;;;1.40;100.00;102749.97;5178574;28;20703;-70
2023/01/25 03:16:09;;;;;;;33.03;16.33;;;;;;;1.44;100.00;102756.97;5187557;28;20991;-71
2023/01/25 03:18:40;;;;;;;30.02;15.43;;;;;;;1.37;100.00;102757.59;5184741;28;20253;-71
2023/01/25 03:21:18;;;;;;;29.70;15.57;;;;;;;1.44;100.00;102753.53;5194087;28;20029;-71
2023/01/25 03:23:58;;;;;;;27.98;13.98;;;;;;;1.39;100.00;102755.94;5187693;28;20049;-70
2023/01/25 03:26:29;;;;;;;28.75;14.52;;;;;;;1.35;100.00;102748.03;5186282;28;20084;-70
2023/01/25 03:28:59;;;;;;;29.60;15.10;;;;;;;1.36;100.00;102745.53;5188323;28;20037;-70
2023/01/25 03:31:29;;;;;;;27.23;13.82;;;;;;;1.31;100.00;102741.03;5192891;28;20026;-71
2023/01/25 03:34:00;;;;;;;29.73;14.00;;;;;;;1.18;100.00;102737.16;5183214;28;20399;-71
2023/01/25 03:36:30;;;;;;;31.45;16.15;;;;;;;1.28;100.00;102731.53;5181919;28;20030;-71
2023/01/25 03:39:00;;;;;;;33.63;16.15;;;;;;;1.37;100.00;102742.13;5190862;28;20040;-71
2023/01/25 03:41:31;;;;;;;32.53;16.92;;;;;;;1.35;100.00;102730.03;5188408;28;20030;-70
2023/01/25 03:44:01;;;;;;;30.65;16.23;;;;;;;1.40;100.00;102731.94;5184180;28;20394;-70
2023/01/25 03:46:31;;;;;;;33.42;16.50;;;;;;;1.35;100.00;102733.47;5183561;28;20064;-70
2023/01/25 03:49:01;;;;;;;32.90;17.27;;;;;;;1.34;100.00;102736.88;5192367;28;20033;-70
2023/01/25 03:51:32;;;;;;;33.17;16.58;;;;;;;1.30;100.00;102726.41;5189924;28;20115;-70
2023/01/25 03:54:03;;;;;;;35.05;17.30;;;;;;;1.34;100.00;102729.16;5182343;28;20464;-71
2023/01/25 03:56:34;;;;;;;31.95;16.15;;;;;;;1.37;100.00;102736.13;5188539;28;20025;-71
2023/01/25 03:59:04;;;;;;;29.05;15.00;;;;;;;1.35;100.00;102732.59;5190215;28;20068;-70
2023/01/25 04:01:35;;;;;;;29.20;15.02;;;;;;;1.32;100.00;102723.09;5171929;28;20038;-70
2023/01/25 04:04:05;;;;;;;30.98;14.70;;;;;;;1.33;100.00;102718.78;5182690;28;20037;-70
2023/01/25 04:06:35;;;;;;;31.05;15.38;;;;;;;1.32;100.00;102715.34;5190745;28;20033;-71
2023/01/25 04:09:06;;;;;;;31.35;15.43;;;;;;;1.36;100.00;102709.47;5193380;28;20052;-70
2023/01/25 04:11:37;;;;;;;36.33;17.63;;;;;;;1.39;100.00;102704.44;5188465;28;20103;-70
2023/01/25 04:14:07;;;;;;;29.90;13.93;;;;;;;1.33;100.00;102709.38;5184739;28;20038;-70
2023/01/25 04:16:37;;;;;;;29.45;14.13;;;;;;;1.14;100.00;102701.81;5185982;28;20049;-71
2023/01/25 04:19:08;;;;;;;25.63;13.32;;;;;;;1.28;100.00;102695.47;5188556;28;20617;-71
2023/01/25 04:21:38;;;;;;;24.95;12.95;;;;;;;1.23;100.00;102699.56;5188267;28;20040;-70
2023/01/25 04:24:08;;;;;;;29.60;14.90;;;;;;;1.20;100.00;102702.03;5187637;28;20040;-70
2023/01/25 04:26:38;;;;;;;27.88;14.80;;;;;;;1.33;100.00;102699.06;5192348;28;20029;-71
2023/01/25 04:29:09;;;;;;;26.85;14.02;;;;;;;1.38;100.00;102694.94;5183051;28;20442;-70
2023/01/25 04:31:39;;;;;;;27.00;14.25;;;;;;;1.23;100.00;102689.25;5185289;28;20107;-70
2023/01/25 04:34:09;;;;;;;24.92;12.85;;;;;;;1.16;100.00;102695.03;5182145;28;20391;-71
2023/01/25 04:36:40;;;;;;;26.15;13.02;;;;;;;1.25;100.00;102684.19;5183499;28;20312;-71
2023/01/25 04:39:10;;;;;;;26.15;13.52;;;;;;;1.23;100.00;102684.09;5190537;28;20026;-70
2023/01/25 04:41:40;;;;;;;27.85;13.07;;;;;;;1.28;100.00;102680.03;5186903;28;20419;-70
2023/01/25 04:44:10;;;;;;;25.20;13.27;;;;;;;1.29;100.00;102675.72;5185895;28;20104;-71
2023/01/25 04:46:41;;;;;;;26.40;13.10;;;;;;;1.34;100.00;102669.03;5186447;28;20077;-70
2023/01/25 04:49:11;;;;;;;26.33;13.60;;;;;;;1.38;100.00;102671.78;5188495;28;20434;-71
2023/01/25 04:51:41;;;;;;;26.50;13.10;;;;;;;1.27;100.00;102667.06;5188516;28;20120;-70
2023/01/25 04:54:12;;;;;;;30.75;14.07;;;;;;;1.33;100.00;102665.59;5181047;28;20040;-71
2023/01/25 04:56:42;;;;;;;24.80;12.93;;;;;;;1.35;100.00;102666.53;5191681;28;20095;-71
2023/01/25 04:59:12;;;;;;;28.67;13.60;;;;;;;1.39;100.00;102658.06;5184833;28;20037;-71
2023/01/25 05:01:43;;;;;;;27.27;13.73;;;;;;;1.44;100.00;102655.66;5186069;28;20109;-71
2023/01/25 05:04:13;;;;;;;28.02;14.38;;;;;;;1.44;100.00;102660.81;5187008;28;20462;-71
2023/01/25 05:06:43;;;;;;;26.83;13.32;;;;;;;1.32;100.00;102665.53;5183771;28;20048;-71
2023/01/25 05:09:16;;;;;;;23.48;10.98;;;;;;;1.34;100.00;102659.63;5184898;28;20030;-70
2023/01/25 05:11:46;;;;;;;27.02;11.75;;;;;;;1.20;100.00;102659.97;5181396;28;20017;-70
2023/01/25 05:14:16;;;;;;;29.45;12.77;;;;;;;1.22;100.00;102642.88;5179082;28;20564;-70
2023/01/25 05:16:46;;;;;;;32.63;13.88;;;;;;;1.18;100.00;102651.28;5181957;28;20025;-70
2023/01/25 05:19:17;;;;;;;27.80;12.90;;;;;;;1.23;100.00;102645.47;5187180;28;20036;-71
2023/01/25 05:21:59;;;;;;;25.05;12.55;;;;;;;1.07;100.00;102647.47;5190549;28;20026;-70
2023/01/25 05:24:31;;;;;;;27.27;13.40;;;;;;;1.12;100.00;102651.09;5184253;28;20040;-71
2023/01/25 05:27:02;;;;;;;29.73;13.65;;;;;;;1.22;100.00;102638.59;5183445;28;20098;-70
2023/01/25 05:29:38;;;;;;;29.63;14.30;;;;;;;1.23;100.00;102642.06;5182984;28;20022;-71
2023/01/25 05:32:14;;;;;;;28.90;14.40;;;;;;;1.35;100.00;102637.31;5180435;28;20030;-71
2023/01/25 05:34:46;;;;;;;31.08;14.70;;;;;;;1.26;100.00;102644.72;5188658;28;20073;-70
2023/01/25 05:37:19;;;;;;;29.50;14.50;;;;;;;1.23;100.00;102632.59;5184884;28;20360;-70
2023/01/25 05:39:49;;;;;;;26.15;13.13;;;;;;;1.25;100.00;102633.53;5184995;28;20037;-70
2023/01/25 05:42:19;;;;;;;31.65;14.70;;;;;;;1.39;100.00;102629.75;5179851;28;20018;-70
2023/01/25 05:44:49;;;;;;;32.80;14.57;;;;;;;1.23;100.00;102632.59;5180929;28;20034;-70
2023/01/25 05:47:20;;;;;;;31.20;14.15;;;;;;;1.31;100.00;102633.75;5179519;28;20471;-70
2023/01/25 05:49:50;;;;;;;29.25;13.93;;;;;;;1.38;100.00;102635.72;5190002;28;20033;-71
2023/01/25 05:52:20;;;;;;;26.83;13.50;;;;;;;1.30;100.00;102638.84;5187153;28;20318;-71
2023/01/25 05:54:51;;;;;;;23.83;11.57;;;;;;;1.31;100.00;102633.75;5182686;28;20403;-71
2023/01/25 05:57:21;;;;;;;25.15;11.35;;;;;;;1.22;100.00;102628.28;5189960;28;20032;-71
2023/01/25 05:59:51;;;;;;;26.67;12.30;;;;;;;1.10;100.00;102633.00;5187091;28;20053;-71
2023/01/25 06:02:21;;;;;;;22.70;11.25;;;;;;;1.15;100.00;102628.91;5177361;28;20113;-71
2023/01/25 06:04:52;;;;;;;29.30;13.15;;;;;;;1.04;100.00;102625.06;5180687;28;20040;-70
2023/01/25 06:07:22;;;;;;;26.88;12.23;;;;;;;1.07;100.00;102622.59;5183677;28;20061;-70
2023/01/25 06:09:52;;;;;;;25.23;11.68;;;;;;;1.04;100.00;102622.50;5188860;28;20128;-71
2023/01/25 06:12:23;;;;;;;27.83;12.60;;;;;;;0.97;100.00;102617.97;5188673;28;20033;-70
2023/01/25 06:14:54;;;;;;;27.42;12.30;;;;;;;1.05;100.00;102613.09;5179361;28;20127;-70
2023/01/25 06:17:24;;;;;;;25.48;11.98;;;;;;;0.88;100.00;102620.19;5178055;28;20354;-70
2023/01/25 06:19:55;;;;;;;27.67;12.52;;;;;;;0.90;100.00;102608.25;5179728;28;20190;-70
2023/01/25 06:22:25;;;;;;;30.90;12.23;;;;;;;0.80;100.00;102611.34;5178464;28;20026;-69
2023/01/25 06:24:55;;;;;;;28.95;13.50;;;;;;;0.80;100.00;102610.44;5186424;28;20172;-71
2023/01/25 06:27:27;;;;;;;30.30;12.95;;;;;;;0.88;100.00;102617.63;5200007;23;20043;-76
2023/01/25 06:29:57;;;;;;;26.88;12.82;;;;;;;1.02;100.00;102618.09;5193998;28;20021;-76
2023/01/25 06:32:31;;;;;;;31.05;13.27;;;;;;;0.97;100.00;102615.38;5183295;28;20026;-77
2023/01/25 06:35:01;;;;;;;33.42;13.75;;;;;;;1.08;100.00;102621.78;5181347;28;20079;-75
2023/01/25 06:37:32;;;;;;;27.80;12.48;;;;;;;1.09;100.00;102617.50;5170058;28;20030;-74
2023/01/25 06:40:02;;;;;;;26.50;12.88;;;;;;;1.00;100.00;102615.50;5188829;28;20057;-75
2023/01/25 06:42:33;;;;;;;28.42;13.35;;;;;;;1.15;100.00;102616.03;5181810;28;20014;-76
2023/01/25 06:45:03;;;;;;;34.55;14.90;;;;;;;1.17;100.00;102611.81;5184076;28;20548;-77
2023/01/25 06:47:34;;;;;;;31.42;14.32;;;;;;;1.10;100.00;102609.81;5188429;28;20033;-76
2023/01/25 06:50:04;;;;;;;30.05;12.88;;;;;;;1.28;100.00;102618.22;5189182;28;20038;-75
2023/01/25 06:52:35;;;;;;;23.73;11.65;;;;;;;1.08;100.00;102624.34;5186819;28;20039;-76
2023/01/25 06:55:08;;;;;;;24.02;11.38;;;;;;;0.92;100.00;102624.63;5184298;28;20029;-76
2023/01/25 06:57:39;;;;;;;28.08;12.30;;;;;;;0.89;100.00;102614.22;5193726;28;20095;-76
2023/01/25 07:00:10;;;;;;;28.48;12.95;;;;;;;1.05;100.00;102613.94;5187621;28;20053;-76
2023/01/25 07:02:40;;;;;;;26.52;12.40;;;;;;;0.93;100.00;102610.94;5185538;28;20029;-75
2023/01/25 07:05:11;;;;;;;29.58;13.48;;;;;;;1.16;100.00;102611.75;5190015;28;20433;-76
2023/01/25 07:07:45;;;;;;;28.55;13.02;;;;;;;1.23;100.00;102606.00;5194271;28;20475;-75
2023/01/25 07:10:15;;;;;;;31.35;13.75;;;;;;;1.08;100.00;102603.75;5190554;28;20029;-75
2023/01/25 07:12:45;;;;;;;27.88;12.95;;;;;;;1.15;100.00;102595.44;5188934;28;20030;-75
2023/01/25 07:15:16;;;;;;;24.70;12.57;;;;;;;1.17;100.00;102603.19;5187425;28;20060;-76
2023/01/25 07:17:46;;;;;;;26.98;12.60;;;;;;;1.24;100.00;102600.88;5193520;28;20029;-77
2023/01/25 07:20:16;;;;;;;25.10;11.88;;;;;;;1.12;100.00;102604.75;5198518;28;20033;-76
2023/01/25 07:22:46;;;;;;;23.50;11.02;;;;;;;1.07;100.00;102607.16;5183487;28;20021;-76
2023/01/25 07:25:17;;;;;;;24.77;11.80;;;;;;;1.14;100.00;102601.41;5192775;28;20095;-76
2023/01/25 07:27:47;;;;;;;27.25;12.55;;;;;;;1.14;100.00;102598.84;5193299;28;20036;-76
2023/01/25 07:30:20;;;;;;;26.23;11.63;;;;;;;1.16;100.00;102597.19;5186350;28;20070;-76
2023/01/25 07:32:50;;;;;;;23.33;11.13;;;;;;;0.96;100.00;102599.88;5190653;28;20164;-76
2023/01/25 07:35:21;;;;;;;25.20;11.43;;;;;;;0.91;100.00;102591.97;5194150;28;20163;-76
2023/01/25 07:37:51;;;;;;;26.23;11.95;;;;;;;0.95;100.00;102596.44;5194314;28;20052;-76
2023/01/25 07:40:24;;;;;;;30.73;13.57;;;;;;;0.86;100.00;102590.97;5190288;28;20034;-75
2023/01/25 07:42:54;;;;;;;25.35;11.77;;;;;;;1.12;100.00;102590.19;5187273;28;20025;-76
2023/01/25 07:45:29;;;;;;;24.73;11.15;;;;;;;1.18;100.00;102587.81;5182123;28;20052;-76
2023/01/25 07:48:00;;;;;;;26.50;12.27;;;;;;;0.92;100.00;102591.16;5183417;28;20499;-76
2023/01/25 07:50:30;;;;;;;21.55;10.20;;;;;;;1.14;100.00;102578.25;5192899;28;20061;-76
2023/01/25 07:53:00;;;;;;;22.75;11.50;;;;;;;0.99;100.00;102582.84;5181743;28;20028;-76
2023/01/25 07:55:31;;;;;;;23.45;12.00;;;;;;;1.00;100.00;102583.72;5187382;28;20175;-75
2023/01/25 07:58:02;;;;;;;24.85;12.05;;;;;;;0.93;100.00;102577.47;5193914;28;20389;-73
2023/01/25 08:00:32;;;;;;;23.30;11.45;;;;;;;0.96;100.00;102584.44;5192224;28;20060;-76
2023/01/25 08:03:02;;;;;;;25.00;11.55;;;;;;;0.81;100.00;102579.63;5192607;28;20026;-76
2023/01/25 08:05:32;;;;;;;25.33;11.05;;;;;;;0.78;100.00;102576.97;5200298;28;20026;-75
2023/01/25 08:08:03;;;;;;;27.75;11.95;;;;;;;0.90;100.00;102582.50;5196271;28;20061;-75
2023/01/25 08:10:33;;;;;;;21.23;11.10;;;;;;;0.98;100.00;102583.69;5202340;28;20048;-75
2023/01/25 08:13:05;;;;;;;21.08;10.52;;;;;;;0.99;100.00;102577.72;5189787;28;20027;-76
2023/01/25 08:15:35;;;;;;;24.40;12.80;;;;;;;0.93;100.00;102585.19;5188541;28;20026;-75
2023/01/25 08:18:06;;;;;;;23.58;12.45;;;;;;;1.11;100.00;102580.72;5192321;28;20410;-76
2023/01/25 08:20:36;;;;;;;24.45;12.38;;;;;;;0.96;100.00;102580.19;5197895;28;20080;-76
2023/01/25 08:23:06;;;;;;;25.58;13.13;;;;;;;1.08;100.00;102580.59;5192894;28;20114;-76
2023/01/25 08:25:38;;;;;;;22.75;11.13;;;;;;;0.98;100.00;102572.50;5188035;28;20038;-77
2023/01/25 08:28:08;;;;;;;23.27;11.50;;;;;;;0.94;100.00;102581.81;5183475;28;20037;-76
2023/01/25 08:30:38;;;;;;;23.30;11.65;;;;;;;1.04;100.00;102577.88;5189606;28;20536;-76
2023/01/25 08:33:09;;;;;;;23.45;10.90;;;;;;;0.69;100.00;102583.47;5190292;28;20026;-76
2023/01/25 08:35:39;;;;;;;20.80;10.90;;;;;;;0.55;100.00;102585.53;5193167;28;20065;-76
2023/01/25 08:38:09;;;;;;;23.15;11.05;;;;;;;0.78;100.00;102581.22;5190652;28;20037;-76
2023/01/25 08:40:40;;;;;;;22.30;11.75;;;;;;;0.79;100.00;102581.28;5191065;28;20029;-76
2023/01/25 08:43:10;;;;;;;24.15;12.50;;;;;;;0.70;100.00;102575.78;5181481;28;20022;-75
2023/01/25 08:45:40;;;;;;;24.30;12.02;;;;;;;0.74;100.00;102569.94;5187375;28;20040;-76
2023/01/25 08:48:14;;;;;;;26.85;13.73;;;;;;;0.85;100.00;102560.91;5195724;28;20467;-76
2023/01/25 08:50:48;;;;;;;26.48;13.68;;;;;;;0.75;100.00;102566.53;5190765;28;20040;-76
2023/01/25 08:53:19;;;;;;;26.90;13.63;;;;;;;0.77;100.00;102549.47;5186535;28;20272;-76
2023/01/25 08:55:49;;;;;;;24.58;13.13;;;;;;;0.90;100.00;102554.22;5185339;28;20083;-76
2023/01/25 08:58:21;;;;;;;24.00;13.52;;;;;;;0.94;100.00;102548.38;5187869;28;20017;-76
2023/01/25 09:00:51;;;;;;;20.90;11.55;;;;;;;1.11;100.00;102542.09;5180032;28;20038;-76
2023/01/25 09:03:21;;;;;;;24.52;12.32;;;;;;;1.10;100.00;102548.03;5192543;28;20021;-76
2023/01/25 09:05:52;;;;;;;20.30;11.18;;;;;;;1.12;100.00;102535.22;5188655;28;20030;-76
2023/01/25 09:08:23;;;;;;;24.20;12.65;;;;;;;1.02;100.00;102534.03;5192469;28;20112;-76
2023/01/25 09:10:53;;;;;;;23.40;13.10;;;;;;;1.11;100.00;102531.81;5197594;28;20224;-76
2023/01/25 09:13:23;;;;;;;26.02;12.88;;;;;;;1.12;100.00;102532.66;5188785;28;20291;-76
2023/01/25 09:16:02;;;;;;;26.33;13.48;;;;;;;1.25;100.00;102530.53;5184880;28;20021;-76
2023/01/25 09:18:34;;;;;;;19.88;10.57;;;;;;;1.17;100.00;102526.84;5189226;28;20029;-75
2023/01/25 09:21:10;;;;;;;22.40;11.15;;;;;;;1.12;100.00;102527.50;5184605;28;20029;-76
2023/01/25 09:23:43;;;;;;;23.25;11.90;;;;;;;1.10;100.00;102524.88;5187673;28;20166;-76
2023/01/25 09:26:14;;;;;;;22.48;11.93;;;;;;;1.27;100.00;102528.88;5187996;28;20121;-77
2023/01/25 09:28:50;;;;;;;21.48;11.73;;;;;;;1.21;100.00;102532.97;5187249;28;20116;-73
2023/01/25 09:31:21;;;;;;;23.15;12.30;;;;;;;1.19;100.00;102532.03;5180434;28;20032;-76
2023/01/25 09:33:51;;;;;;;25.48;12.32;;;;;;;1.15;100.00;102532.75;5186202;28;20029;-76
2023/01/25 09:36:22;;;;;;;21.27;12.30;;;;;;;1.03;100.00;102533.22;5185751;28;20578;-77
2023/01/25 09:38:54;;;;;;;23.95;12.25;;;;;;;0.93;100.00;102528.56;5183958;28;20045;-76
2023/01/25 09:41:30;;;;;;;25.75;12.63;;;;;;;0.85;100.00;102532.59;5182624;28;20037;-76
2023/01/25 09:44:22;;;;;;;22.80;11.43;;;;;;;1.15;100.00;102525.03;5188517;28;20349;-75
2023/01/25 09:46:57;;;;;;;22.52;11.95;;;;;;;0.99;100.00;102526.22;5186555;28;20041;-76
2023/01/25 09:49:53;;;;;;;24.13;12.50;;;;;;;0.79;100.00;102527.25;5184444;28;20030;-76
2023/01/25 09:52:52;;;;;;;22.25;10.77;;;;;;;1.07;100.00;102519.63;5179832;28;20038;-76
2023/01/25 09:55:27;;;;;;;25.73;12.60;;;;;;;0.96;100.00;102504.66;5174721;28;20029;-75
2023/01/25 09:58:01;;;;;;;29.98;14.15;;;;;;;0.71;100.00;102505.50;5191298;28;20104;-76
2023/01/25 10:00:36;;;;;;;29.73;13.57;;;;;;;0.80;100.00;102504.94;5192513;28;20645;-76
2023/01/25 10:03:31;;;;;;;20.40;9.93;;;;;;;0.72;100.00;102496.97;5183199;28;20061;-76
2023/01/25 10:06:01;;;;;;;35.88;16.23;;;;;;;1.09;100.00;102487.09;5185466;28;20044;-75
2023/01/25 10:08:50;;;;;;;32.20;15.65;;;;;;;0.79;100.00;102490.34;5178503;28;20021;-73
2023/01/25 10:11:27;;;;;;;30.23;14.43;;;;;;;1.01;100.00;102483.38;5181782;28;20029;-76
2023/01/25 10:13:58;;;;;;;34.13;16.13;;;;;;;0.89;100.00;102476.97;5183849;28;20453;-76
2023/01/25 10:16:47;;;;;;;31.13;14.65;;;;;;;0.93;100.00;102466.81;5182813;28;20117;-75
2023/01/25 10:19:28;;;;;;;37.03;16.10;;;;;;;0.98;100.00;102465.28;5180909;28;20036;-75
2023/01/25 10:22:19;;;;;;;29.80;12.85;;;;;;;1.08;100.00;102453.59;5185181;28;20571;-76
2023/01/25 10:24:58;;;;;;;32.92;15.23;;;;;;;1.08;100.00;102449.28;5193820;28;20154;-72
2023/01/25 10:27:52;;;;;;;35.92;16.90;;;;;;;1.04;100.00;102450.03;5187322;28;20038;-76
2023/01/25 10:30:45;;;;;;;46.20;19.75;;;;;;;0.98;100.00;102451.53;5186089;28;20030;-76
2023/01/25 10:33:19;;;;;;;39.97;18.20;;;;;;;1.06;100.00;102448.38;5195434;28;20056;-77
2023/01/25 10:35:50;;;;;;;42.28;18.35;;;;;;;0.98;100.00;102436.97;5202085;28;20025;-76
2023/01/25 10:38:41;;;;;;;46.00;19.67;;;;;;;1.26;100.00;102433.56;5193070;28;20129;-76
2023/01/25 10:41:31;;;;;;;43.55;19.80;;;;;;;1.21;100.00;102436.00;5191600;28;20037;-75
2023/01/25 10:46:57;;;;;;;44.95;19.48;;;;;;;1.17;100.00;102420.41;5188451;28;20048;-76
2023/01/25 10:49:42;;;;;;;53.20;24.27;;;;;;;0.90;100.00;102420.38;5190840;28;20471;-76
2023/01/25 10:52:12;;;;;;;56.63;25.63;;;;;;;1.00;100.00;102409.56;5203663;28;20026;-76
2023/01/25 10:54:43;;;;;;;63.88;26.40;;;;;;;0.75;100.00;102409.59;5186859;28;20029;-76
2023/01/25 10:57:18;;;;;;;62.97;26.35;;;;;;;0.91;100.00;102404.13;5179777;28;20022;-76
2023/01/25 10:59:51;;;;;;;64.22;26.52;;;;;;;0.93;100.00;102406.75;5192890;28;20087;-75
2023/01/25 11:02:47;;;;;;;56.35;25.77;;;;;;;0.99;100.00;102405.25;5175834;28;20026;-76
2023/01/25 11:05:18;;;;;;;62.08;24.13;;;;;;;0.92;100.00;102395.56;5183704;28;20133;-77
2023/01/25 11:07:48;;;;;;;49.15;21.50;;;;;;;1.07;100.00;102390.91;5183574;28;20876;-76
2023/01/25 11:10:32;;;;;;;53.75;22.40;;;;;;;1.00;100.00;102383.84;5181948;28;20044;-76
2023/01/25 11:13:14;;;;;;;45.83;19.55;;;;;;;0.96;100.00;102382.00;5182883;28;20034;-77
2023/01/25 11:15:52;;;;;;;49.55;21.13;;;;;;;0.92;100.00;102371.56;5182632;28;20037;-75
2023/01/25 11:18:32;;;;;;;46.40;21.02;;;;;;;1.00;100.00;102363.25;5178631;28;20379;-76
2023/01/25 11:21:19;;;;;;;45.72;20.10;;;;;;;0.96;100.00;102353.69;5188939;28;20029;-75
2023/01/25 11:24:06;;;;;;;42.42;19.95;;;;;;;0.93;100.00;102356.13;5191032;28;20398;-77
2023/01/25 11:26:38;;;;;;;59.05;22.33;;;;;;;1.05;100.00;102353.97;5182835;28;20482;-75
2023/01/25 11:29:20;;;;;;;47.10;21.00;;;;;;;0.94;100.00;102360.50;5185081;28;20030;-76
2023/01/25 11:31:54;;;;;;;50.80;20.75;;;;;;;0.99;100.00;102348.63;5189040;28;20391;-76
2023/01/25 11:34:26;;;;;;;49.05;21.42;;;;;;;0.89;100.00;102344.00;5173475;28;20030;-76
2023/01/25 11:37:18;;;;;;;44.92;20.58;;;;;;;1.09;100.00;102332.63;5182724;28;20036;-76
2023/01/25 11:39:56;;;;;;;42.83;20.92;;;;;;;1.21;100.00;102333.00;5182181;28;20030;-76
2023/01/25 11:42:43;;;;;;;33.42;17.88;;;;;;;1.02;100.00;102333.28;5187164;28;20101;-75
2023/01/25 11:45:32;;;;;;;39.72;18.90;;;;;;;0.89;100.00;102322.56;5184671;28;20522;-76
2023/01/25 11:48:18;;;;;;;40.72;19.90;;;;;;;0.83;100.00;102312.94;5193150;28;20025;-76
2023/01/25 11:51:14;;;;;;;50.65;20.50;;;;;;;0.95;100.00;102304.72;5187053;28;20034;-76
2023/01/25 11:53:48;;;;;;;47.97;21.33;;;;;;;1.16;100.00;102302.78;5196570;28;20037;-75
2023/01/25 11:56:38;;;;;;;46.45;21.55;;;;;;;1.17;100.00;102301.97;5197731;28;20060;-75